createdAt,value
2023-04-06T05:30:41.892Z,7.82
2023-04-06T05:33:43.656Z,6.43
2023-04-06T05:36:45.391Z,7.30
2023-04-06T05:39:47.057Z,6.85
2023-04-06T05:42:50.491Z,6.63
2023-04-06T05:45:52.257Z,6.20
2023-04-06T05:48:53.979Z,5.75
2023-04-06T05:51:56.330Z,6.57
2023-04-06T05:54:58.222Z,6.55
2023-04-06T05:57:59.875Z,6.00
2023-04-06T06:01:03.815Z,6.75
2023-04-06T06:04:05.795Z,6.28
2023-04-06T06:07:07.487Z,6.57
2023-04-06T06:10:09.762Z,6.70
2023-04-06T06:49:45.884Z,7.43
2023-04-06T06:52:47.544Z,6.50
2023-04-06T06:55:52.198Z,6.75
2023-04-06T06:58:53.957Z,6.30
2023-04-06T07:01:56.274Z,6.53
2023-04-06T07:04:57.985Z,6.47
2023-04-06T07:07:59.705Z,6.40
2023-04-06T07:11:01.400Z,6.60
2023-04-06T07:14:03.269Z,6.38
2023-04-06T07:17:05.031Z,5.93
2023-04-06T07:20:07.974Z,6.20
2023-04-06T07:23:09.794Z,6.05
2023-04-06T07:26:11.467Z,5.43
2023-04-06T07:29:13.711Z,5.43
2023-04-06T07:32:15.918Z,5.10
2023-04-06T07:35:17.770Z,5.28
2023-04-06T07:38:19.453Z,6.03
2023-04-06T07:41:21.191Z,5.53
2023-04-06T07:44:23.076Z,5.63
2023-04-06T07:47:24.768Z,5.80
2023-04-06T07:50:26.430Z,5.47
2023-04-06T07:53:28.113Z,5.50
2023-04-06T07:56:30.101Z,6.50
2023-04-06T07:59:31.795Z,6.07
2023-04-06T08:02:33.621Z,6.13
2023-04-06T08:05:35.569Z,6.53
2023-04-06T08:08:37.450Z,7.78
2023-04-06T08:11:39.168Z,8.60
2023-04-06T08:14:41.034Z,8.40
2023-04-06T08:17:42.702Z,8.75
2023-04-06T08:20:44.641Z,10.43
2023-04-06T08:23:47.077Z,10.18
2023-04-06T08:26:48.865Z,10.20
2023-04-06T08:29:52.051Z,8.50
2023-04-06T08:32:54.014Z,7.57
2023-04-06T08:35:55.882Z,7.07
2023-04-06T08:38:58.088Z,8.02
2023-04-06T08:42:01.022Z,7.03
2023-04-06T08:45:03.507Z,6.45
2023-04-06T08:48:07.707Z,6.93
2023-04-06T08:51:10.799Z,8.15
2023-04-06T08:54:12.772Z,6.60
2023-04-06T08:57:14.903Z,6.90
2023-04-06T09:00:17.712Z,7.03
2023-04-06T09:03:21.185Z,6.75
2023-04-06T09:06:23.482Z,6.22
2023-04-06T09:09:26.116Z,5.97
2023-04-06T09:12:29.262Z,7.07
2023-04-06T09:15:30.950Z,6.53
2023-04-06T09:18:33.758Z,6.85
2023-04-06T09:21:36.785Z,6.65
2023-04-06T09:24:49.467Z,6.15
2023-04-06T09:28:01.167Z,6.70
2023-04-06T09:31:03.147Z,6.18
2023-04-06T09:34:04.902Z,6.88
2023-04-06T09:37:19.351Z,6.68
2023-04-06T09:40:22.211Z,7.85
2023-04-06T09:43:30.587Z,7.20
2023-04-06T09:46:43.393Z,7.50
2023-04-06T09:50:00.764Z,6.65
2023-04-06T09:53:03.895Z,6.20
2023-04-06T09:56:13.740Z,6.78
2023-04-06T09:59:26.643Z,6.68
2023-04-06T10:02:46.596Z,7.60
2023-04-06T10:05:53.373Z,7.68
2023-04-06T10:08:57.185Z,6.75
2023-04-06T10:11:59.723Z,7.22
2023-04-06T10:15:01.730Z,6.95
2023-04-06T10:18:04.601Z,8.07
2023-04-06T10:21:15.335Z,6.90
2023-04-06T10:24:18.306Z,7.30
2023-04-06T10:27:30.551Z,6.22
2023-04-06T10:30:33.072Z,6.13
2023-04-06T10:33:35.594Z,6.97
2023-04-06T10:36:37.802Z,6.75
2023-04-06T10:39:59.392Z,6.40
2023-04-06T10:43:14.293Z,7.88
2023-04-06T10:46:30.246Z,8.55
2023-04-06T10:49:31.920Z,8.18
2023-04-06T10:52:33.579Z,8.48
2023-04-06T10:55:35.826Z,7.32
2023-04-06T10:58:37.808Z,7.45
2023-04-06T11:01:45.227Z,7.80
2023-04-06T11:04:58.542Z,8.07
2023-04-06T11:08:00.266Z,7.30
2023-04-06T11:11:08.784Z,7.93
2023-04-06T11:14:12.304Z,7.65
2023-04-06T11:17:14.017Z,8.07
2023-04-06T11:20:16.086Z,7.25
2023-04-06T11:23:25.380Z,7.43
2023-04-06T11:26:27.138Z,6.95
2023-04-06T11:29:31.027Z,7.60
2023-04-06T11:32:45.233Z,7.60
2023-04-06T11:35:47.388Z,7.88
2023-04-06T11:38:49.292Z,7.45
2023-04-06T11:41:52.779Z,7.88
2023-04-06T11:44:59.007Z,6.93
2023-04-06T11:48:01.634Z,7.53
2023-04-06T11:51:05.977Z,7.65
2023-04-06T11:54:07.943Z,7.90
2023-04-06T11:57:09.948Z,7.07
2023-04-06T12:00:13.285Z,6.85
2023-04-06T12:03:15.861Z,7.32
2023-04-06T12:06:18.311Z,7.70
2023-04-06T12:09:20.063Z,7.53
2023-04-06T12:12:21.714Z,7.20
2023-04-06T12:15:23.421Z,7.20
2023-04-06T12:18:25.305Z,8.00
2023-04-06T12:21:29.214Z,8.13
2023-04-06T12:24:30.989Z,8.50
2023-04-06T12:27:32.688Z,8.90
2023-04-06T12:30:36.570Z,9.15
2023-04-06T12:33:38.224Z,8.45
2023-04-06T12:36:40.209Z,7.70
2023-04-06T12:39:41.919Z,7.68
2023-04-06T12:42:43.865Z,7.43
2023-04-06T12:45:45.740Z,7.97
2023-04-06T12:48:47.915Z,7.82
2023-04-06T12:51:49.601Z,7.95
2023-04-06T12:54:52.381Z,8.10
2023-04-06T12:58:06.375Z,7.55
2023-04-06T13:01:09.235Z,7.63
2023-04-06T13:04:11.311Z,7.75
2023-04-06T13:07:13.115Z,8.07
2023-04-06T13:10:14.977Z,7.60
2023-04-06T13:13:16.731Z,7.47
2023-04-06T13:16:18.527Z,7.80
2023-04-06T13:19:20.830Z,7.75
2023-04-06T13:22:22.505Z,7.68
2023-04-06T13:25:24.368Z,7.05
2023-04-06T13:28:27.118Z,7.93
2023-04-06T13:31:29.351Z,7.15
2023-04-06T13:34:31.465Z,7.03
2023-04-06T13:37:34.050Z,8.13
2023-04-06T13:40:35.731Z,7.97
2023-04-06T13:43:37.506Z,8.00
2023-04-06T13:46:39.331Z,8.00
2023-04-06T13:49:41.683Z,8.27
2023-04-06T13:52:43.376Z,7.28
2023-04-06T13:55:45.422Z,7.38
2023-04-06T13:58:47.070Z,6.43
2023-04-06T14:01:49.285Z,6.32
2023-04-06T14:04:51.269Z,6.00
2023-04-06T14:07:53.158Z,6.40
2023-04-06T14:10:56.418Z,6.30
2023-04-06T14:13:58.723Z,6.63
2023-04-06T14:17:01.141Z,6.07
2023-04-06T14:20:03.508Z,4.93
2023-04-06T14:23:05.483Z,6.03
2023-04-06T14:26:09.276Z,5.55
2023-04-06T14:29:11.269Z,6.30
2023-04-06T14:32:13.097Z,6.13
2023-04-06T14:35:14.811Z,6.15
2023-04-06T14:38:16.453Z,6.00
2023-04-06T14:41:23.697Z,6.22
2023-04-06T14:44:25.644Z,6.00
2023-04-06T14:47:27.314Z,5.68
2023-04-06T14:50:29.016Z,5.28
2023-04-06T14:53:31.041Z,5.72
2023-04-06T14:56:33.034Z,5.55
2023-04-06T14:59:36.087Z,4.72
2023-04-06T15:02:41.157Z,4.53
2023-04-06T15:05:43.326Z,5.47
2023-04-06T15:08:46.100Z,5.75
2023-04-06T15:11:47.744Z,5.55
2023-04-06T15:14:49.404Z,5.43
2023-04-06T15:17:51.068Z,5.72
2023-04-06T15:20:53.408Z,6.53
2023-04-06T15:23:55.204Z,5.97
2023-04-06T15:26:57.856Z,4.90
2023-04-06T15:29:59.572Z,5.28
2023-04-06T15:33:03.736Z,5.57
2023-04-06T15:36:17.902Z,5.22
2023-04-06T15:39:19.561Z,5.45
2023-04-06T15:42:21.249Z,4.78
2023-04-06T15:45:26.025Z,4.88
2023-04-06T15:48:31.605Z,5.35
2023-04-06T15:51:33.699Z,4.68
2023-04-06T15:54:36.535Z,4.78
2023-04-06T15:57:38.370Z,4.75
